Four Corners, Washington
Current Conditions -  °F | °C
As of 10:02 PM on Saturday 22 Nov 2014 (Local Time) from KRNT Reporting Station
Overcast Overcast  
Wind Chill: 45°   Ceiling: 2400
Heat Index: 47°   Visibility: 10mi
Dew Point: 42°   Wind: 5mph
Humidity: 83%   Direction: 140°SE
Pressure: 30.11"   Gusts: NA
Location:  47.4066°N, 122.018°W
Report Text: KRNT 230602Z AUTO 14004KT 10SM BKN024 OVC031 08/06 A3011 RMK AO2 T00830056
Loading
Personal Weather Stations






























Interactive Weather Map New forecast layout! Learn more

10-Day Weather Forecast

Advertisements
Track Severe Weather on mobile